Time;durP1;ratioP1;P1;durP2;ratioP2;P2;SDS_P1;SDS_P2;PMS_P1;PMS_P2;Temp;Humidity;BMP_temperature;BMP_pressure;BME280_temperature;BME280_humidity;BME280_pressure;Samples;Min_cycle;Max_cycle;Signal;HPM_P1;HPM_P2
2020/07/07 00:01:02;;;;;;;1.29;1.19;;;;;;;21.64;58.13;100936.27;;;;-63
2020/07/07 00:04:03;;;;;;;1.71;1.37;;;;;;;21.65;58.14;100937.42;;;;-63
2020/07/07 00:07:02;;;;;;;1.43;1.27;;;;;;;21.63;58.09;100936.11;;;;-63
2020/07/07 00:10:02;;;;;;;3.62;1.43;;;;;;;21.63;58.16;100937.58;;;;-64
2020/07/07 00:13:02;;;;;;;1.50;1.13;;;;;;;21.63;58.09;100944.19;;;;-63
2020/07/07 00:16:02;;;;;;;1.33;1.20;;;;;;;21.61;58.15;100946.45;;;;-64
2020/07/07 00:19:02;;;;;;;1.90;1.30;;;;;;;21.61;58.19;100948.17;;;;-64
2020/07/07 00:22:02;;;;;;;1.39;1.25;;;;;;;21.60;58.20;100947.44;;;;-63
2020/07/07 00:25:03;;;;;;;1.43;1.29;;;;;;;21.60;58.22;100945.97;;;;-63
2020/07/07 00:28:03;;;;;;;1.33;1.21;;;;;;;21.60;58.21;100953.78;;;;-63
2020/07/07 00:31:02;;;;;;;1.45;1.25;;;;;;;21.59;58.28;100947.26;;;;-63
2020/07/07 00:34:02;;;;;;;1.41;1.30;;;;;;;21.59;58.24;100949.47;;;;-63
2020/07/07 00:37:02;;;;;;;1.81;1.32;;;;;;;21.58;58.26;100950.28;;;;-63
2020/07/07 00:40:03;;;;;;;1.29;1.19;;;;;;;21.59;58.27;100949.38;;;;-63
2020/07/07 00:43:02;;;;;;;1.30;1.20;;;;;;;21.57;58.30;100950.75;;;;-63
2020/07/07 00:46:02;;;;;;;1.28;1.18;;;;;;;21.57;58.28;100950.59;;;;-63
2020/07/07 00:49:03;;;;;;;1.29;1.19;;;;;;;21.57;58.33;100953.70;;;;-63
2020/07/07 00:52:02;;;;;;;1.33;1.22;;;;;;;21.56;58.31;100950.92;;;;-63
2020/07/07 00:55:02;;;;;;;1.33;1.19;;;;;;;21.56;58.33;100958.98;;;;-63
2020/07/07 00:58:02;;;;;;;1.69;1.35;;;;;;;21.56;58.37;100959.70;;;;-63
2020/07/07 01:01:02;;;;;;;1.27;1.17;;;;;;;21.55;58.35;100959.88;;;;-63
2020/07/07 01:04:02;;;;;;;1.30;1.20;;;;;;;21.55;58.33;100957.02;;;;-63
2020/07/07 01:07:02;;;;;;;1.68;1.37;;;;;;;21.55;58.37;100955.07;;;;-62
2020/07/07 01:10:02;;;;;;;1.30;1.20;;;;;;;21.54;58.37;100954.02;;;;-63
2020/07/07 01:13:02;;;;;;;1.35;1.25;;;;;;;21.55;58.40;100958.98;;;;-63
2020/07/07 01:16:02;;;;;;;1.38;1.28;;;;;;;21.53;58.38;100958.23;;;;-63
2020/07/07 01:19:03;;;;;;;1.40;1.29;;;;;;;21.54;58.41;100955.08;;;;-63
2020/07/07 01:22:02;;;;;;;1.38;1.28;;;;;;;21.53;58.42;100949.19;;;;-63
2020/07/07 01:25:02;;;;;;;1.46;1.29;;;;;;;21.53;58.43;100948.13;;;;-63
2020/07/07 01:28:02;;;;;;;1.31;1.18;;;;;;;21.52;58.45;100942.83;;;;-63
2020/07/07 01:31:02;;;;;;;1.40;1.20;;;;;;;21.53;58.43;100946.58;;;;-63
2020/07/07 01:34:03;;;;;;;1.45;1.06;;;;;;;21.52;58.47;100945.52;;;;-63
2020/07/07 01:37:02;;;;;;;1.40;1.30;;;;;;;21.51;58.44;100945.50;;;;-63
2020/07/07 01:40:03;;;;;;;1.34;1.24;;;;;;;21.52;58.46;100942.48;;;;-64
2020/07/07 01:43:02;;;;;;;1.59;1.23;;;;;;;21.51;58.51;100942.64;;;;-63
2020/07/07 01:46:03;;;;;;;1.22;1.15;;;;;;;21.51;58.48;100941.50;;;;-63
2020/07/07 01:49:02;;;;;;;1.30;1.20;;;;;;;21.50;58.50;100944.53;;;;-62
2020/07/07 01:52:02;;;;;;;1.30;1.20;;;;;;;21.50;58.49;100944.45;;;;-63
2020/07/07 01:55:02;;;;;;;1.32;1.22;;;;;;;21.50;58.55;100951.52;;;;-63
2020/07/07 01:58:02;;;;;;;1.34;1.20;;;;;;;21.49;58.54;100950.62;;;;-63
2020/07/07 02:01:02;;;;;;;1.56;1.20;;;;;;;21.49;58.55;100951.52;;;;-63
2020/07/07 02:04:03;;;;;;;1.17;1.11;;;;;;;21.48;58.52;100952.51;;;;-63
2020/07/07 02:07:02;;;;;;;1.47;1.37;;;;;;;21.48;58.54;100948.92;;;;-63
2020/07/07 02:10:03;;;;;;;1.24;1.15;;;;;;;21.48;58.59;100952.51;;;;-63
2020/07/07 02:13:02;;;;;;;1.33;1.23;;;;;;;21.47;58.58;100953.05;;;;-63
2020/07/07 02:16:03;;;;;;;1.45;1.19;;;;;;;21.47;58.59;100956.97;;;;-63
2020/07/07 02:19:02;;;;;;;1.41;1.27;;;;;;;21.47;58.54;100955.26;;;;-62
2020/07/07 02:22:02;;;;;;;1.51;1.29;;;;;;;21.47;58.61;100958.52;;;;-63
2020/07/07 02:25:03;;;;;;;1.35;1.25;;;;;;;21.46;58.60;100952.98;;;;-62
2020/07/07 02:28:02;;;;;;;1.32;1.22;;;;;;;21.46;58.59;100956.71;;;;-63
2020/07/07 02:31:02;;;;;;;1.42;1.19;;;;;;;21.46;58.64;100957.31;;;;-63
2020/07/07 02:34:02;;;;;;;1.31;1.20;;;;;;;21.46;58.62;100958.02;;;;-63
2020/07/07 02:37:02;;;;;;;1.10;1.10;;;;;;;21.46;58.66;100961.11;;;;-63
2020/07/07 02:40:02;;;;;;;1.40;1.30;;;;;;;21.45;58.66;100957.04;;;;-63
2020/07/07 02:43:03;;;;;;;1.56;1.30;;;;;;;21.45;58.67;100962.02;;;;-63
2020/07/07 02:46:02;;;;;;;1.41;1.30;;;;;;;21.44;58.64;100954.03;;;;-63
2020/07/07 02:49:02;;;;;;;1.35;1.23;;;;;;;21.43;58.66;100952.70;;;;-63
2020/07/07 02:52:03;;;;;;;1.85;1.26;;;;;;;21.44;58.67;100954.69;;;;-63
2020/07/07 02:59:37;;;;;;;1.51;1.31;;;;;;;21.43;58.73;100959.55;;;;-63
2020/07/07 03:02:36;;;;;;;1.31;1.21;;;;;;;21.42;58.66;100960.05;;;;-63
2020/07/07 03:05:37;;;;;;;1.39;1.29;;;;;;;21.42;58.70;100962.75;;;;-63
2020/07/07 03:08:37;;;;;;;1.29;1.20;;;;;;;21.43;58.65;100970.41;;;;-62
2020/07/07 03:11:37;;;;;;;1.30;1.20;;;;;;;21.42;58.69;100970.33;;;;-63
2020/07/07 03:14:37;;;;;;;1.41;1.30;;;;;;;21.42;58.76;100972.45;;;;-63
2020/07/07 03:17:37;;;;;;;1.38;1.28;;;;;;;21.42;58.67;100970.38;;;;-62
2020/07/07 03:20:37;;;;;;;1.28;1.18;;;;;;;21.43;58.71;100971.14;;;;-63
2020/07/07 03:23:37;;;;;;;1.33;1.20;;;;;;;21.42;58.70;100972.09;;;;-63
2020/07/07 03:26:37;;;;;;;1.29;1.20;;;;;;;21.43;58.72;100976.60;;;;-63
2020/07/07 03:31:36;;;;;;;1.30;1.20;;;;;;;21.42;58.69;100977.72;;;;-63
2020/07/07 03:34:36;;;;;;;1.29;1.19;;;;;;;21.42;58.69;100981.83;;;;-63
2020/07/07 03:37:36;;;;;;;1.68;1.22;;;;;;;21.42;58.70;100980.98;;;;-63
2020/07/07 03:40:36;;;;;;;1.32;1.22;;;;;;;21.42;58.65;100980.82;;;;-64
2020/07/07 03:43:36;;;;;;;1.25;1.15;;;;;;;21.41;58.67;100983.16;;;;-63
2020/07/07 03:46:36;;;;;;;2.18;1.30;;;;;;;21.41;58.66;100984.62;;;;-63
2020/07/07 03:49:36;;;;;;;1.98;1.31;;;;;;;21.40;58.72;100986.50;;;;-64
2020/07/07 03:52:36;;;;;;;1.35;1.25;;;;;;;21.41;58.67;100988.12;;;;-63
2020/07/07 03:55:36;;;;;;;1.38;1.28;;;;;;;21.41;58.68;100992.62;;;;-63
2020/07/07 03:58:36;;;;;;;1.20;1.12;;;;;;;21.40;58.71;100996.95;;;;-63
2020/07/07 04:01:36;;;;;;;1.35;1.23;;;;;;;21.40;58.72;100994.98;;;;-63
2020/07/07 04:04:36;;;;;;;1.31;1.21;;;;;;;21.39;58.76;100997.91;;;;-59
2020/07/07 04:07:36;;;;;;;1.57;1.37;;;;;;;21.38;58.82;100997.58;;;;-60
2020/07/07 04:10:36;;;;;;;1.63;1.33;;;;;;;21.38;58.67;100991.88;;;;-60
2020/07/07 04:13:36;;;;;;;1.37;1.27;;;;;;;21.37;58.58;100992.42;;;;-59
2020/07/07 04:16:36;;;;;;;1.50;1.40;;;;;;;21.37;58.46;100999.05;;;;-59
2020/07/07 04:19:36;;;;;;;2.93;1.41;;;;;;;21.38;58.30;100997.50;;;;-60
2020/07/07 04:22:36;;;;;;;1.62;1.40;;;;;;;21.37;58.24;100996.02;;;;-60
2020/07/07 04:27:36;;;;;;;1.94;1.40;;;;;;;21.36;58.03;100995.69;;;;-60
2020/07/07 04:30:36;;;;;;;1.56;1.40;;;;;;;21.36;57.90;100992.11;;;;-60
2020/07/07 04:33:36;;;;;;;1.50;1.40;;;;;;;21.35;57.91;100990.13;;;;-60
2020/07/07 04:36:36;;;;;;;2.10;1.48;;;;;;;21.34;57.82;100994.86;;;;-60
2020/07/07 04:39:36;;;;;;;1.47;1.29;;;;;;;21.34;57.86;100997.71;;;;-60
2020/07/07 04:42:37;;;;;;;1.65;1.51;;;;;;;21.33;57.65;100999.16;;;;-59
2020/07/07 04:45:36;;;;;;;1.55;1.38;;;;;;;21.33;57.45;100999.33;;;;-60
2020/07/07 04:48:36;;;;;;;2.19;1.52;;;;;;;21.32;57.23;100996.97;;;;-60
2020/07/07 04:51:36;;;;;;;2.13;1.49;;;;;;;21.32;57.26;100997.30;;;;-59
2020/07/07 04:54:36;;;;;;;2.26;1.54;;;;;;;21.32;57.24;100996.64;;;;-52
2020/07/07 04:57:37;;;;;;;2.42;1.50;;;;;;;21.32;57.31;101000.23;;;;-53
2020/07/07 05:01:36;;;;;;;2.99;1.60;;;;;;;21.30;57.17;100999.16;;;;-53
2020/07/07 05:04:36;;;;;;;1.40;1.30;;;;;;;21.30;57.26;100995.89;;;;-52
2020/07/07 05:07:36;;;;;;;2.75;1.53;;;;;;;21.29;56.89;100991.82;;;;-53
2020/07/07 05:10:36;;;;;;;1.74;1.50;;;;;;;21.29;56.86;100990.33;;;;-52
2020/07/07 05:13:36;;;;;;;2.11;1.50;;;;;;;21.28;56.74;100990.66;;;;-51
2020/07/07 05:16:37;;;;;;;2.03;1.67;;;;;;;21.28;56.74;100991.97;;;;-52
2020/07/07 05:19:37;;;;;;;2.29;1.57;;;;;;;21.27;56.68;100984.69;;;;-61
2020/07/07 05:22:36;;;;;;;3.09;1.64;;;;;;;21.04;54.47;100991.60;;;;-56
2020/07/07 05:25:36;;;;;;;3.64;1.72;;;;;;;20.85;54.10;100990.87;;;;-52
2020/07/07 05:28:37;;;;;;;4.35;2.00;;;;;;;20.68;53.68;100990.14;;;;-58
2020/07/07 05:31:36;;;;;;;2.57;1.73;;;;;;;20.57;53.57;100991.89;;;;-60
2020/07/07 05:34:37;;;;;;;3.95;1.77;;;;;;;20.41;53.49;100990.24;;;;-53
2020/07/07 05:37:37;;;;;;;4.62;1.94;;;;;;;20.33;53.66;100989.91;;;;-57
2020/07/07 05:40:37;;;;;;;6.66;1.93;;;;;;;20.36;53.52;100988.22;;;;-51
2020/07/07 05:43:36;;;;;;;3.33;1.87;;;;;;;20.17;53.64;100988.84;;;;-51
2020/07/07 05:46:37;;;;;;;4.05;1.95;;;;;;;20.06;53.84;100987.96;;;;-51
2020/07/07 05:49:37;;;;;;;2.92;1.88;;;;;;;20.06;53.90;100990.73;;;;-51
2020/07/07 05:52:36;;;;;;;6.15;1.97;;;;;;;19.96;53.88;100990.02;;;;-51
2020/07/07 05:55:37;;;;;;;3.79;1.94;;;;;;;19.95;53.84;100988.56;;;;-51
2020/07/07 05:58:37;;;;;;;3.59;1.80;;;;;;;19.90;53.75;100988.19;;;;-51
2020/07/07 06:01:36;;;;;;;4.61;1.96;;;;;;;19.81;54.47;100990.25;;;;-51
2020/07/07 06:04:37;;;;;;;3.97;1.95;;;;;;;19.83;54.61;100990.68;;;;-51
2020/07/07 06:07:36;;;;;;;4.69;1.99;;;;;;;19.83;53.91;100985.16;;;;-52
2020/07/07 06:10:36;;;;;;;4.67;1.97;;;;;;;19.80;54.03;100981.38;;;;-51
2020/07/07 06:13:37;;;;;;;4.71;2.01;;;;;;;19.76;54.03;100982.14;;;;-51
2020/07/07 06:16:36;;;;;;;3.39;1.91;;;;;;;19.76;54.22;100987.34;;;;-51
2020/07/07 06:19:36;;;;;;;3.43;1.84;;;;;;;19.79;54.30;100979.80;;;;-51
2020/07/07 06:22:36;;;;;;;6.45;1.89;;;;;;;19.77;55.65;100976.94;;;;-51
2020/07/07 06:25:36;;;;;;;4.03;1.81;;;;;;;19.72;55.42;100979.23;;;;-51
2020/07/07 06:28:37;;;;;;;5.62;1.96;;;;;;;19.70;56.13;100979.50;;;;-51
2020/07/07 06:31:37;;;;;;;3.02;1.77;;;;;;;19.66;55.61;100974.73;;;;-51
2020/07/07 06:34:37;;;;;;;4.41;1.79;;;;;;;19.67;56.48;100966.88;;;;-51
2020/07/07 06:37:36;;;;;;;3.60;1.79;;;;;;;19.76;55.90;100966.53;;;;-51
2020/07/07 06:40:36;;;;;;;5.15;1.60;;;;;;;19.78;55.88;100965.98;;;;-51
2020/07/07 06:43:37;;;;;;;3.36;1.81;;;;;;;19.78;55.80;100971.27;;;;-51
2020/07/07 06:46:37;;;;;;;6.66;1.89;;;;;;;19.74;55.24;100970.40;;;;-51
2020/07/07 06:49:37;;;;;;;6.33;1.89;;;;;;;19.72;54.74;100965.33;;;;-51
2020/07/07 06:52:37;;;;;;;3.81;1.73;;;;;;;19.65;55.50;100970.98;;;;-51
2020/07/07 06:55:36;;;;;;;3.48;1.89;;;;;;;19.63;55.19;100969.50;;;;-51
2020/07/07 06:58:37;;;;;;;4.29;1.73;;;;;;;19.72;54.83;100966.80;;;;-51
2020/07/07 07:01:36;;;;;;;3.89;1.72;;;;;;;19.80;54.13;100963.08;;;;-51
2020/07/07 07:04:36;;;;;;;3.79;1.59;;;;;;;19.82;55.38;100962.22;;;;-51
2020/07/07 07:07:36;;;;;;;5.38;1.75;;;;;;;19.79;53.20;100965.58;;;;-51
2020/07/07 07:10:36;;;;;;;3.62;1.87;;;;;;;19.76;54.15;100958.88;;;;-51
2020/07/07 07:13:37;;;;;;;5.89;1.95;;;;;;;19.75;54.89;100960.56;;;;-51
2020/07/07 07:16:36;;;;;;;3.89;1.94;;;;;;;19.78;54.89;100954.19;;;;-52
2020/07/07 07:19:36;;;;;;;5.70;1.84;;;;;;;19.81;54.91;100954.05;;;;-52
2020/07/07 07:22:37;;;;;;;4.39;1.73;;;;;;;19.87;55.09;100961.12;;;;-52
2020/07/07 07:25:37;;;;;;;3.62;1.53;;;;;;;19.94;55.25;100959.85;;;;-53
2020/07/07 07:28:36;;;;;;;4.33;1.78;;;;;;;20.00;55.06;100957.78;;;;-51
2020/07/07 07:31:37;;;;;;;3.19;1.55;;;;;;;20.05;55.00;100961.69;;;;-53
2020/07/07 07:34:36;;;;;;;6.66;1.61;;;;;;;20.09;55.17;100959.29;;;;-51
2020/07/07 07:37:36;;;;;;;5.40;1.69;;;;;;;20.12;55.27;100959.55;;;;-51
2020/07/07 07:40:36;;;;;;;6.19;1.68;;;;;;;20.16;55.34;100955.70;;;;-51
2020/07/07 07:43:36;;;;;;;6.91;1.77;;;;;;;20.20;55.46;100948.67;;;;-49
2020/07/07 07:46:36;;;;;;;3.99;1.55;;;;;;;20.24;55.24;100948.31;;;;-52
2020/07/07 07:49:37;;;;;;;2.55;1.50;;;;;;;20.26;55.53;100945.41;;;;-52
2020/07/07 07:52:37;;;;;;;4.33;1.70;;;;;;;20.27;55.53;100948.08;;;;-52
2020/07/07 07:55:36;;;;;;;4.62;1.59;;;;;;;20.29;55.42;100944.60;;;;-52
2020/07/07 07:58:36;;;;;;;3.95;1.56;;;;;;;20.31;55.38;100942.67;;;;-52
2020/07/07 08:01:36;;;;;;;4.17;1.57;;;;;;;20.34;55.85;100938.32;;;;-48
2020/07/07 08:04:37;;;;;;;2.78;1.53;;;;;;;20.37;55.84;100933.78;;;;-50
2020/07/07 08:07:37;;;;;;;2.71;1.35;;;;;;;20.39;56.08;100935.52;;;;-49
2020/07/07 08:10:37;;;;;;;3.39;1.55;;;;;;;20.42;56.10;100930.00;;;;-53
2020/07/07 08:13:36;;;;;;;2.88;1.52;;;;;;;20.44;56.21;100928.66;;;;-47
2020/07/07 08:16:36;;;;;;;3.19;1.60;;;;;;;20.47;55.99;100923.14;;;;-51
2020/07/07 08:19:36;;;;;;;2.75;1.73;;;;;;;20.49;56.28;100922.84;;;;-59
2020/07/07 08:22:36;;;;;;;4.33;1.60;;;;;;;20.50;56.38;100921.53;;;;-59
2020/07/07 08:25:36;;;;;;;2.78;1.58;;;;;;;20.50;56.33;100920.06;;;;-58
2020/07/07 08:28:36;;;;;;;4.81;1.87;;;;;;;20.52;56.39;100917.88;;;;-63
2020/07/07 08:31:36;;;;;;;4.50;1.77;;;;;;;20.55;56.38;100912.14;;;;-58
2020/07/07 08:34:36;;;;;;;2.68;1.54;;;;;;;20.57;56.37;100912.09;;;;-52
2020/07/07 08:37:36;;;;;;;3.34;1.56;;;;;;;20.60;56.48;100907.08;;;;-53
2020/07/07 08:40:36;;;;;;;4.66;1.73;;;;;;;20.63;56.44;100910.13;;;;-52
2020/07/07 08:43:36;;;;;;;2.27;1.37;;;;;;;20.65;56.57;100905.59;;;;-57
2020/07/07 08:46:36;;;;;;;5.75;1.63;;;;;;;20.68;56.55;100901.53;;;;-56
2020/07/07 08:49:36;;;;;;;3.06;1.55;;;;;;;20.70;56.68;100905.87;;;;-56
2020/07/07 08:52:37;;;;;;;4.41;1.50;;;;;;;20.72;56.74;100897.66;;;;-52
2020/07/07 08:55:36;;;;;;;4.17;1.77;;;;;;;20.74;56.61;100892.88;;;;-51
2020/07/07 08:58:36;;;;;;;2.53;1.53;;;;;;;20.77;56.56;100891.33;;;;-54
2020/07/07 09:01:36;;;;;;;4.55;1.75;;;;;;;20.78;56.49;100885.48;;;;-52
2020/07/07 09:04:36;;;;;;;3.46;1.45;;;;;;;20.81;56.43;100889.82;;;;-53
2020/07/07 09:07:37;;;;;;;3.07;1.43;;;;;;;20.82;56.47;100890.98;;;;-51
2020/07/07 09:10:37;;;;;;;3.33;1.57;;;;;;;20.85;56.42;100882.36;;;;-54
2020/07/07 09:13:37;;;;;;;3.77;1.64;;;;;;;20.87;56.36;100880.34;;;;-54
2020/07/07 09:16:36;;;;;;;1.93;1.40;;;;;;;20.88;56.23;100878.41;;;;-55
2020/07/07 09:19:36;;;;;;;4.48;1.63;;;;;;;20.90;56.26;100868.64;;;;-52
2020/07/07 09:22:36;;;;;;;4.81;1.65;;;;;;;20.91;56.29;100869.61;;;;-54
2020/07/07 09:25:36;;;;;;;2.55;1.45;;;;;;;20.93;56.29;100868.41;;;;-57
2020/07/07 09:28:36;;;;;;;3.41;1.41;;;;;;;20.95;56.25;100866.30;;;;-53
2020/07/07 09:31:36;;;;;;;3.85;1.53;;;;;;;20.96;56.24;100868.03;;;;-52
2020/07/07 09:34:36;;;;;;;2.69;1.43;;;;;;;20.97;56.10;100867.20;;;;-51
2020/07/07 09:37:36;;;;;;;2.41;1.50;;;;;;;20.99;56.03;100872.77;;;;-52
2020/07/07 09:40:36;;;;;;;2.49;1.50;;;;;;;21.01;56.09;100867.33;;;;-53
2020/07/07 09:43:37;;;;;;;2.81;1.54;;;;;;;21.02;56.22;100863.73;;;;-56
2020/07/07 09:46:36;;;;;;;3.20;1.54;;;;;;;21.03;56.18;100865.22;;;;-56
2020/07/07 09:49:36;;;;;;;3.41;1.44;;;;;;;21.05;56.21;100863.52;;;;-51
2020/07/07 09:52:37;;;;;;;1.86;1.40;;;;;;;21.06;56.25;100863.19;;;;-51
2020/07/07 09:55:36;;;;;;;4.02;1.50;;;;;;;21.08;56.25;100858.74;;;;-56
2020/07/07 09:58:36;;;;;;;3.47;1.34;;;;;;;21.11;56.26;100855.81;;;;-51
2020/07/07 10:01:36;;;;;;;4.90;1.77;;;;;;;21.11;56.22;100855.08;;;;-58
2020/07/07 10:04:36;;;;;;;4.57;1.63;;;;;;;21.12;56.31;100848.80;;;;-51
2020/07/07 10:07:37;;;;;;;6.65;1.95;;;;;;;21.12;56.43;100845.13;;;;-52
2020/07/07 10:10:36;;;;;;;7.33;1.87;;;;;;;21.14;56.31;100842.38;;;;-53
2020/07/07 10:13:36;;;;;;;9.78;1.69;;;;;;;21.15;56.35;100846.30;;;;-56
2020/07/07 10:16:36;;;;;;;7.23;1.59;;;;;;;21.17;56.31;100844.69;;;;-53
2020/07/07 10:19:36;;;;;;;4.35;1.56;;;;;;;21.18;56.36;100843.05;;;;-51
2020/07/07 10:22:37;;;;;;;6.26;1.81;;;;;;;21.20;56.68;100838.09;;;;-57
2020/07/07 10:25:36;;;;;;;5.67;1.74;;;;;;;21.21;56.64;100841.53;;;;-56
2020/07/07 10:28:36;;;;;;;4.18;1.49;;;;;;;21.23;56.65;100844.05;;;;-51
2020/07/07 10:31:36;;;;;;;6.10;1.55;;;;;;;21.24;56.70;100843.00;;;;-53
2020/07/07 10:34:36;;;;;;;5.41;1.60;;;;;;;21.25;56.71;100850.41;;;;-54
2020/07/07 10:37:36;;;;;;;6.81;1.60;;;;;;;21.26;56.77;100843.66;;;;-52
2020/07/07 10:40:36;;;;;;;4.43;1.70;;;;;;;21.27;56.64;100837.81;;;;-52
2020/07/07 10:43:36;;;;;;;3.15;1.69;;;;;;;21.27;56.68;100835.75;;;;-52
2020/07/07 10:46:36;;;;;;;3.14;1.43;;;;;;;21.26;56.71;100836.16;;;;-52
2020/07/07 10:49:36;;;;;;;4.49;1.63;;;;;;;21.26;56.63;100833.56;;;;-52
2020/07/07 10:52:36;;;;;;;2.98;1.48;;;;;;;21.25;56.64;100832.18;;;;-52
2020/07/07 10:55:36;;;;;;;5.67;1.59;;;;;;;21.25;56.66;100828.65;;;;-52
2020/07/07 10:58:36;;;;;;;4.24;1.47;;;;;;;21.25;56.66;100825.73;;;;-52
2020/07/07 11:01:36;;;;;;;3.21;1.52;;;;;;;21.25;56.59;100827.20;;;;-52
2020/07/07 11:04:37;;;;;;;3.19;1.40;;;;;;;21.25;56.68;100819.70;;;;-51
2020/07/07 11:07:36;;;;;;;3.73;1.43;;;;;;;21.26;56.62;100820.92;;;;-52
2020/07/07 11:10:36;;;;;;;3.25;1.60;;;;;;;21.26;56.61;100815.06;;;;-52
2020/07/07 11:13:37;;;;;;;3.03;1.37;;;;;;;21.25;56.64;100809.11;;;;-52
2020/07/07 11:16:37;;;;;;;3.81;1.48;;;;;;;21.26;56.58;100804.78;;;;-52
2020/07/07 11:19:36;;;;;;;3.39;1.51;;;;;;;21.26;56.54;100801.03;;;;-52
2020/07/07 11:22:36;;;;;;;3.07;1.58;;;;;;;21.26;56.55;100797.13;;;;-52
2020/07/07 11:25:37;;;;;;;3.13;1.54;;;;;;;21.26;56.59;100797.94;;;;-52
2020/07/07 11:28:36;;;;;;;4.06;1.39;;;;;;;21.26;56.56;100797.36;;;;-52
2020/07/07 11:31:36;;;;;;;2.02;1.40;;;;;;;21.26;56.52;100805.34;;;;-52
2020/07/07 11:34:36;;;;;;;2.54;1.48;;;;;;;21.26;56.56;100804.86;;;;-52
2020/07/07 11:37:36;;;;;;;1.51;1.33;;;;;;;21.26;56.55;100805.67;;;;-52
2020/07/07 11:40:36;;;;;;;1.82;1.40;;;;;;;21.27;56.54;100803.17;;;;-52
2020/07/07 11:43:36;;;;;;;2.69;1.29;;;;;;;21.27;56.54;100803.14;;;;-52
2020/07/07 11:46:36;;;;;;;2.37;1.48;;;;;;;21.27;56.59;100805.02;;;;-52
2020/07/07 11:49:36;;;;;;;3.11;1.48;;;;;;;21.27;56.52;100800.48;;;;-52
2020/07/07 11:52:36;;;;;;;1.85;1.39;;;;;;;21.27;56.58;100800.61;;;;-52
2020/07/07 11:55:37;;;;;;;2.87;1.49;;;;;;;21.26;56.44;100798.98;;;;-49
2020/07/07 11:58:37;;;;;;;2.67;1.40;;;;;;;21.27;56.51;100800.48;;;;-48
2020/07/07 12:01:36;;;;;;;2.22;1.41;;;;;;;21.28;56.53;100792.23;;;;-49
2020/07/07 12:04:36;;;;;;;1.94;1.43;;;;;;;21.27;56.55;100782.05;;;;-48
2020/07/07 12:07:36;;;;;;;2.18;1.40;;;;;;;21.28;56.60;100787.27;;;;-49
2020/07/07 12:10:36;;;;;;;3.40;1.40;;;;;;;21.28;56.61;100785.64;;;;-48
2020/07/07 12:13:36;;;;;;;2.13;1.41;;;;;;;21.28;56.58;100777.73;;;;-49
2020/07/07 12:16:36;;;;;;;1.70;1.35;;;;;;;21.29;56.59;100772.83;;;;-48
2020/07/07 12:19:36;;;;;;;3.43;1.50;;;;;;;21.29;56.68;100766.66;;;;-53
2020/07/07 12:22:36;;;;;;;2.01;1.48;;;;;;;21.31;56.69;100769.58;;;;-52
2020/07/07 12:25:36;;;;;;;1.90;1.30;;;;;;;21.33;56.76;100766.16;;;;-49
2020/07/07 12:28:36;;;;;;;2.23;1.30;;;;;;;21.35;56.79;100760.38;;;;-59
2020/07/07 12:31:36;;;;;;;4.42;1.42;;;;;;;21.35;56.83;100754.99;;;;-55
2020/07/07 12:34:36;;;;;;;2.63;1.27;;;;;;;21.37;56.81;100756.73;;;;-56
2020/07/07 12:37:36;;;;;;;1.84;1.42;;;;;;;21.39;56.85;100757.53;;;;-56
2020/07/07 12:40:36;;;;;;;1.93;1.46;;;;;;;21.39;56.94;100746.64;;;;-60
2020/07/07 12:43:36;;;;;;;2.15;1.45;;;;;;;21.40;56.96;100739.95;;;;-55
2020/07/07 12:46:36;;;;;;;5.48;1.61;;;;;;;21.43;57.09;100740.47;;;;-48
2020/07/07 12:49:36;;;;;;;3.06;1.52;;;;;;;21.46;57.13;100743.34;;;;-54
2020/07/07 12:52:36;;;;;;;8.89;1.75;;;;;;;21.46;57.04;100743.55;;;;-53
2020/07/07 12:55:36;;;;;;;7.88;1.77;;;;;;;21.48;56.94;100743.34;;;;-56
2020/07/07 12:58:36;;;;;;;9.07;1.87;;;;;;;21.49;57.21;100746.59;;;;-53
2020/07/07 13:01:37;;;;;;;4.93;1.79;;;;;;;21.50;57.23;100741.77;;;;-57
2020/07/07 13:04:36;;;;;;;5.86;1.87;;;;;;;21.50;57.24;100745.31;;;;-58
2020/07/07 13:07:37;;;;;;;6.09;1.75;;;;;;;21.52;57.22;100739.45;;;;-55
2020/07/07 13:10:36;;;;;;;5.57;1.59;;;;;;;21.52;57.29;100739.12;;;;-55
2020/07/07 13:13:36;;;;;;;4.86;1.65;;;;;;;21.51;57.44;100740.41;;;;-59
2020/07/07 13:16:36;;;;;;;4.57;1.73;;;;;;;21.52;57.46;100737.65;;;;-59
2020/07/07 13:19:36;;;;;;;6.13;1.75;;;;;;;21.53;57.42;100732.17;;;;-58
2020/07/07 13:22:37;;;;;;;5.13;1.61;;;;;;;21.55;57.43;100730.71;;;;-61
2020/07/07 13:25:37;;;;;;;4.19;1.79;;;;;;;21.56;57.40;100737.55;;;;-59
2020/07/07 13:28:36;;;;;;;3.16;1.62;;;;;;;21.57;57.31;100726.56;;;;-58
2020/07/07 13:31:36;;;;;;;5.31;1.61;;;;;;;21.58;57.30;100726.14;;;;-57
2020/07/07 13:34:36;;;;;;;6.12;1.72;;;;;;;21.59;57.35;100719.05;;;;-55
2020/07/07 13:37:36;;;;;;;2.85;1.60;;;;;;;21.60;57.37;100721.52;;;;-50
2020/07/07 13:40:36;;;;;;;4.32;1.85;;;;;;;21.61;57.30;100716.22;;;;-51
2020/07/07 13:43:36;;;;;;;6.91;1.81;;;;;;;21.60;57.43;100708.14;;;;-46
2020/07/07 13:46:36;;;;;;;4.61;1.67;;;;;;;21.61;57.39;100707.97;;;;-60
2020/07/07 13:49:36;;;;;;;6.44;1.69;;;;;;;21.62;57.48;100702.91;;;;-59
2020/07/07 13:52:36;;;;;;;5.78;1.77;;;;;;;21.63;57.52;100699.16;;;;-51
2020/07/07 13:55:36;;;;;;;4.64;1.78;;;;;;;21.62;57.43;100687.48;;;;-48
2020/07/07 13:58:36;;;;;;;4.71;1.75;;;;;;;21.62;57.45;100682.76;;;;-49
2020/07/07 14:01:36;;;;;;;4.36;1.69;;;;;;;21.62;57.46;100679.00;;;;-48
2020/07/07 14:04:36;;;;;;;2.75;1.63;;;;;;;21.62;57.41;100683.41;;;;-49
2020/07/07 14:07:36;;;;;;;4.27;1.69;;;;;;;21.61;57.36;100673.71;;;;-56
2020/07/07 14:10:36;;;;;;;3.08;1.69;;;;;;;21.61;57.36;100676.66;;;;-47
2020/07/07 14:13:36;;;;;;;3.96;1.57;;;;;;;21.60;57.27;100675.66;;;;-48
2020/07/07 14:16:36;;;;;;;5.10;1.75;;;;;;;21.59;57.28;100675.58;;;;-48
2020/07/07 14:19:36;;;;;;;3.64;1.71;;;;;;;21.59;57.24;100674.84;;;;-48
2020/07/07 14:22:36;;;;;;;2.80;1.39;;;;;;;21.58;57.31;100671.84;;;;-48
2020/07/07 14:25:36;;;;;;;4.41;1.57;;;;;;;21.59;57.21;100667.11;;;;-48
2020/07/07 14:28:36;;;;;;;4.21;1.44;;;;;;;21.58;57.26;100668.72;;;;-48
2020/07/07 14:31:37;;;;;;;3.37;1.69;;;;;;;21.58;57.22;100666.88;;;;-52
2020/07/07 14:34:36;;;;;;;2.65;1.64;;;;;;;21.58;57.19;100663.59;;;;-55
2020/07/07 14:37:36;;;;;;;5.93;1.83;;;;;;;21.58;57.32;100655.95;;;;-60
2020/07/07 14:40:36;;;;;;;5.29;1.51;;;;;;;21.59;57.46;100653.81;;;;-51
2020/07/07 14:43:36;;;;;;;3.33;1.75;;;;;;;21.60;57.52;100642.46;;;;-57
2020/07/07 14:46:36;;;;;;;3.94;1.51;;;;;;;21.62;57.71;100640.61;;;;-58
2020/07/07 14:49:37;;;;;;;3.54;1.65;;;;;;;21.65;57.71;100642.97;;;;-53
2020/07/07 14:52:36;;;;;;;3.58;1.65;;;;;;;21.65;58.18;100640.28;;;;-58
2020/07/07 14:55:36;;;;;;;2.52;1.59;;;;;;;21.66;58.16;100641.08;;;;-54
2020/07/07 14:58:36;;;;;;;4.19;1.50;;;;;;;21.66;58.08;100633.57;;;;-61
2020/07/07 15:01:36;;;;;;;2.85;1.47;;;;;;;21.65;58.10;100640.28;;;;-59
2020/07/07 15:04:36;;;;;;;2.91;1.59;;;;;;;21.65;57.94;100638.25;;;;-60
2020/07/07 15:07:36;;;;;;;3.73;1.41;;;;;;;21.65;58.13;100633.27;;;;-58
2020/07/07 15:10:36;;;;;;;2.43;1.51;;;;;;;21.65;57.85;100626.41;;;;-59
2020/07/07 15:13:36;;;;;;;4.46;1.56;;;;;;;21.64;57.98;100625.61;;;;-50
2020/07/07 15:16:36;;;;;;;5.65;1.60;;;;;;;21.64;57.36;100625.02;;;;-59
2020/07/07 15:19:36;;;;;;;2.47;1.51;;;;;;;21.64;57.85;100621.91;;;;-54
2020/07/07 15:22:36;;;;;;;3.63;1.51;;;;;;;21.65;57.48;100620.63;;;;-49
2020/07/07 15:25:36;;;;;;;3.70;1.47;;;;;;;21.65;57.64;100609.37;;;;-53
2020/07/07 15:28:36;;;;;;;3.80;1.61;;;;;;;21.67;57.61;100598.03;;;;-56
2020/07/07 15:31:36;;;;;;;3.25;1.52;;;;;;;21.69;57.47;100605.70;;;;-62
2020/07/07 15:34:36;;;;;;;2.87;1.49;;;;;;;21.68;57.31;100599.31;;;;-59
2020/07/07 15:37:37;;;;;;;4.57;1.35;;;;;;;21.69;57.45;100596.23;;;;-54
2020/07/07 15:40:36;;;;;;;2.65;1.50;;;;;;;21.70;57.24;100592.80;;;;-60
2020/07/07 15:43:36;;;;;;;3.40;1.40;;;;;;;21.70;57.25;100583.98;;;;-55
2020/07/07 15:46:36;;;;;;;2.34;1.49;;;;;;;21.70;57.34;100580.14;;;;-60
2020/07/07 15:49:36;;;;;;;4.67;1.61;;;;;;;21.69;57.31;100579.42;;;;-59
2020/07/07 15:52:36;;;;;;;2.08;1.41;;;;;;;21.69;57.22;100580.33;;;;-56
2020/07/07 15:55:36;;;;;;;2.39;1.47;;;;;;;21.71;57.09;100581.72;;;;-48
2020/07/07 15:58:37;;;;;;;2.29;1.53;;;;;;;21.72;57.00;100577.05;;;;-50
2020/07/07 16:01:36;;;;;;;2.43;1.49;;;;;;;21.72;57.06;100578.34;;;;-52
2020/07/07 16:04:36;;;;;;;2.03;1.55;;;;;;;21.72;56.95;100576.31;;;;-51
2020/07/07 16:07:36;;;;;;;2.31;1.39;;;;;;;21.73;57.10;100580.57;;;;-54
2020/07/07 16:10:36;;;;;;;2.25;1.40;;;;;;;21.74;57.13;100581.54;;;;-58
2020/07/07 16:13:36;;;;;;;1.63;1.36;;;;;;;21.75;56.97;100576.30;;;;-60
2020/07/07 16:16:36;;;;;;;2.85;1.26;;;;;;;21.76;57.02;100565.54;;;;-59
2020/07/07 16:19:36;;;;;;;2.52;1.37;;;;;;;21.76;57.00;100567.91;;;;-60
2020/07/07 16:22:37;;;;;;;2.46;1.39;;;;;;;21.77;56.87;100563.73;;;;-60
2020/07/07 16:25:36;;;;;;;2.48;1.56;;;;;;;21.78;56.98;100564.32;;;;-61
2020/07/07 16:28:36;;;;;;;2.07;1.32;;;;;;;21.78;56.79;100565.30;;;;-59
2020/07/07 16:31:36;;;;;;;5.69;1.62;;;;;;;21.78;56.90;100565.54;;;;-53
2020/07/07 16:34:36;;;;;;;2.40;1.44;;;;;;;21.79;56.46;100566.94;;;;-60
2020/07/07 16:37:36;;;;;;;5.03;1.50;;;;;;;21.79;56.69;100566.94;;;;-60
2020/07/07 16:40:36;;;;;;;3.10;1.40;;;;;;;21.79;56.98;100564.17;;;;-54
2020/07/07 16:43:36;;;;;;;3.45;1.60;;;;;;;21.81;56.99;100563.08;;;;-57
2020/07/07 16:46:36;;;;;;;5.05;1.43;;;;;;;21.81;57.05;100554.59;;;;-56
2020/07/07 16:49:36;;;;;;;3.64;1.42;;;;;;;21.82;57.16;100549.14;;;;-57
2020/07/07 16:52:37;;;;;;;5.15;1.45;;;;;;;21.82;57.12;100543.77;;;;-58